sensor_id;sensor_type;location;lat;lon;timestamp;P1;durP1;ratioP1;P2;durP2;ratioP2
41817;SDS011;27493;51.730;5.294;2022-12-20T00:01:44;6.33;;;2.83;;
41817;SDS011;27493;51.730;5.294;2022-12-20T00:04:10;4.57;;;2.80;;
41817;SDS011;27493;51.730;5.294;2022-12-20T00:06:36;4.00;;;2.90;;
41817;SDS011;27493;51.730;5.294;2022-12-20T00:09:03;3.77;;;2.90;;
41817;SDS011;27493;51.730;5.294;2022-12-20T00:11:28;4.03;;;3.40;;
41817;SDS011;27493;51.730;5.294;2022-12-20T00:13:54;3.90;;;3.00;;
41817;SDS011;27493;51.730;5.294;2022-12-20T00:16:20;3.23;;;2.90;;
41817;SDS011;27493;51.730;5.294;2022-12-20T00:18:46;4.37;;;3.10;;
41817;SDS011;27493;51.730;5.294;2022-12-20T00:21:12;4.40;;;3.13;;
41817;SDS011;27493;51.730;5.294;2022-12-20T00:23:38;4.13;;;2.70;;
41817;SDS011;27493;51.730;5.294;2022-12-20T00:26:04;5.00;;;3.00;;
41817;SDS011;27493;51.730;5.294;2022-12-20T00:28:31;6.07;;;3.13;;
41817;SDS011;27493;51.730;5.294;2022-12-20T00:30:56;4.20;;;3.00;;
41817;SDS011;27493;51.730;5.294;2022-12-20T00:33:21;6.17;;;3.20;;
41817;SDS011;27493;51.730;5.294;2022-12-20T00:35:46;3.47;;;2.70;;
41817;SDS011;27493;51.730;5.294;2022-12-20T00:38:12;3.10;;;2.60;;
41817;SDS011;27493;51.730;5.294;2022-12-20T00:40:37;5.57;;;2.97;;
41817;SDS011;27493;51.730;5.294;2022-12-20T00:43:02;3.30;;;2.97;;
41817;SDS011;27493;51.730;5.294;2022-12-20T00:45:28;2.97;;;2.67;;
41817;SDS011;27493;51.730;5.294;2022-12-20T00:47:53;3.90;;;3.00;;
41817;SDS011;27493;51.730;5.294;2022-12-20T00:50:18;5.83;;;2.90;;
41817;SDS011;27493;51.730;5.294;2022-12-20T00:52:44;5.60;;;3.10;;
41817;SDS011;27493;51.730;5.294;2022-12-20T00:55:09;5.50;;;2.60;;
41817;SDS011;27493;51.730;5.294;2022-12-20T00:57:34;4.13;;;2.70;;
41817;SDS011;27493;51.730;5.294;2022-12-20T00:59:59;3.43;;;2.67;;
41817;SDS011;27493;51.730;5.294;2022-12-20T01:02:24;3.87;;;2.87;;
41817;SDS011;27493;51.730;5.294;2022-12-20T01:04:49;4.10;;;2.80;;
41817;SDS011;27493;51.730;5.294;2022-12-20T01:07:15;6.20;;;2.93;;
41817;SDS011;27493;51.730;5.294;2022-12-20T01:09:40;5.20;;;3.00;;
41817;SDS011;27493;51.730;5.294;2022-12-20T01:12:05;5.57;;;3.17;;
41817;SDS011;27493;51.730;5.294;2022-12-20T01:14:30;4.63;;;2.90;;
41817;SDS011;27493;51.730;5.294;2022-12-20T01:16:55;3.40;;;3.00;;
41817;SDS011;27493;51.730;5.294;2022-12-20T01:19:21;5.30;;;3.70;;
41817;SDS011;27493;51.730;5.294;2022-12-20T01:21:46;5.53;;;3.33;;
41817;SDS011;27493;51.730;5.294;2022-12-20T01:24:15;5.20;;;3.30;;
41817;SDS011;27493;51.730;5.294;2022-12-20T01:26:41;5.00;;;3.37;;
41817;SDS011;27493;51.730;5.294;2022-12-20T01:29:06;6.93;;;3.40;;
41817;SDS011;27493;51.730;5.294;2022-12-20T01:31:32;5.27;;;3.40;;
41817;SDS011;27493;51.730;5.294;2022-12-20T01:33:57;5.60;;;4.30;;
41817;SDS011;27493;51.730;5.294;2022-12-20T01:36:23;9.93;;;5.10;;
41817;SDS011;27493;51.730;5.294;2022-12-20T01:38:49;11.27;;;5.13;;
41817;SDS011;27493;51.730;5.294;2022-12-20T01:41:18;6.33;;;4.07;;
41817;SDS011;27493;51.730;5.294;2022-12-20T01:46:09;6.33;;;3.93;;
41817;SDS011;27493;51.730;5.294;2022-12-20T01:48:35;5.53;;;3.80;;
41817;SDS011;27493;51.730;5.294;2022-12-20T01:51:00;7.03;;;4.10;;
41817;SDS011;27493;51.730;5.294;2022-12-20T01:53:25;6.37;;;3.57;;
41817;SDS011;27493;51.730;5.294;2022-12-20T01:55:50;6.10;;;4.10;;
41817;SDS011;27493;51.730;5.294;2022-12-20T01:58:16;5.33;;;3.77;;
41817;SDS011;27493;51.730;5.294;2022-12-20T02:00:42;6.50;;;4.13;;
41817;SDS011;27493;51.730;5.294;2022-12-20T02:03:09;4.83;;;3.60;;
41817;SDS011;27493;51.730;5.294;2022-12-20T02:05:36;4.73;;;4.03;;
41817;SDS011;27493;51.730;5.294;2022-12-20T02:08:02;6.00;;;3.87;;
41817;SDS011;27493;51.730;5.294;2022-12-20T02:10:33;5.97;;;3.80;;
41817;SDS011;27493;51.730;5.294;2022-12-20T02:13:03;6.30;;;3.73;;
41817;SDS011;27493;51.730;5.294;2022-12-20T02:15:34;9.07;;;4.37;;
41817;SDS011;27493;51.730;5.294;2022-12-20T02:28:39;5.90;;;3.57;;
41817;SDS011;27493;51.730;5.294;2022-12-20T02:31:10;6.67;;;4.60;;
41817;SDS011;27493;51.730;5.294;2022-12-20T02:33:37;5.80;;;4.10;;
41817;SDS011;27493;51.730;5.294;2022-12-20T02:36:03;5.83;;;3.90;;
41817;SDS011;27493;51.730;5.294;2022-12-20T02:38:30;7.53;;;4.10;;
41817;SDS011;27493;51.730;5.294;2022-12-20T02:41:00;4.67;;;3.73;;
41817;SDS011;27493;51.730;5.294;2022-12-20T02:43:27;7.80;;;3.97;;
41817;SDS011;27493;51.730;5.294;2022-12-20T02:46:12;5.97;;;3.80;;
41817;SDS011;27493;51.730;5.294;2022-12-20T02:48:38;5.27;;;3.60;;
41817;SDS011;27493;51.730;5.294;2022-12-20T02:51:04;6.57;;;3.87;;
41817;SDS011;27493;51.730;5.294;2022-12-20T02:53:30;5.50;;;4.10;;
41817;SDS011;27493;51.730;5.294;2022-12-20T02:56:00;6.57;;;3.97;;
41817;SDS011;27493;51.730;5.294;2022-12-20T03:01:11;7.10;;;4.20;;
41817;SDS011;27493;51.730;5.294;2022-12-20T03:03:38;5.40;;;4.03;;
41817;SDS011;27493;51.730;5.294;2022-12-20T03:06:03;5.90;;;4.13;;
41817;SDS011;27493;51.730;5.294;2022-12-20T03:08:29;4.87;;;4.10;;
41817;SDS011;27493;51.730;5.294;2022-12-20T03:10:54;6.07;;;3.63;;
41817;SDS011;27493;51.730;5.294;2022-12-20T03:13:20;7.97;;;4.30;;
41817;SDS011;27493;51.730;5.294;2022-12-20T03:15:46;6.43;;;4.17;;
41817;SDS011;27493;51.730;5.294;2022-12-20T03:18:11;5.97;;;4.17;;
41817;SDS011;27493;51.730;5.294;2022-12-20T03:20:36;7.27;;;4.10;;
41817;SDS011;27493;51.730;5.294;2022-12-20T03:23:01;8.00;;;3.90;;
41817;SDS011;27493;51.730;5.294;2022-12-20T03:25:27;7.27;;;3.40;;
41817;SDS011;27493;51.730;5.294;2022-12-20T03:27:52;5.90;;;3.73;;
41817;SDS011;27493;51.730;5.294;2022-12-20T03:30:18;7.03;;;4.07;;
41817;SDS011;27493;51.730;5.294;2022-12-20T03:32:43;6.63;;;3.63;;
41817;SDS011;27493;51.730;5.294;2022-12-20T03:35:08;5.90;;;3.27;;
41817;SDS011;27493;51.730;5.294;2022-12-20T03:37:33;6.60;;;4.00;;
41817;SDS011;27493;51.730;5.294;2022-12-20T03:39:59;11.93;;;3.70;;
41817;SDS011;27493;51.730;5.294;2022-12-20T03:42:24;5.87;;;3.70;;
41817;SDS011;27493;51.730;5.294;2022-12-20T03:44:49;7.67;;;3.87;;
41817;SDS011;27493;51.730;5.294;2022-12-20T03:47:14;6.87;;;4.20;;
41817;SDS011;27493;51.730;5.294;2022-12-20T03:49:40;5.37;;;3.63;;
41817;SDS011;27493;51.730;5.294;2022-12-20T03:52:05;4.97;;;3.50;;
41817;SDS011;27493;51.730;5.294;2022-12-20T03:54:30;4.53;;;3.00;;
41817;SDS011;27493;51.730;5.294;2022-12-20T03:56:55;6.37;;;3.53;;
41817;SDS011;27493;51.730;5.294;2022-12-20T03:59:20;6.73;;;3.40;;
41817;SDS011;27493;51.730;5.294;2022-12-20T04:01:46;5.13;;;3.13;;
41817;SDS011;27493;51.730;5.294;2022-12-20T04:04:12;6.20;;;3.53;;
41817;SDS011;27493;51.730;5.294;2022-12-20T04:06:37;4.27;;;3.20;;
41817;SDS011;27493;51.730;5.294;2022-12-20T04:09:02;4.93;;;3.53;;
41817;SDS011;27493;51.730;5.294;2022-12-20T04:11:27;3.23;;;2.90;;
41817;SDS011;27493;51.730;5.294;2022-12-20T04:13:53;3.60;;;3.30;;
41817;SDS011;27493;51.730;5.294;2022-12-20T04:16:22;4.43;;;3.37;;
41817;SDS011;27493;51.730;5.294;2022-12-20T04:18:48;4.33;;;3.20;;
41817;SDS011;27493;51.730;5.294;2022-12-20T04:21:13;4.70;;;3.07;;
41817;SDS011;27493;51.730;5.294;2022-12-20T04:23:39;5.33;;;3.20;;
41817;SDS011;27493;51.730;5.294;2022-12-20T04:26:05;3.23;;;2.90;;
41817;SDS011;27493;51.730;5.294;2022-12-20T04:28:31;4.80;;;3.07;;
41817;SDS011;27493;51.730;5.294;2022-12-20T04:30:56;8.20;;;3.20;;
41817;SDS011;27493;51.730;5.294;2022-12-20T04:33:22;4.33;;;3.20;;
41817;SDS011;27493;51.730;5.294;2022-12-20T04:35:47;4.20;;;3.10;;
41817;SDS011;27493;51.730;5.294;2022-12-20T04:38:12;3.70;;;2.97;;
41817;SDS011;27493;51.730;5.294;2022-12-20T04:40:38;5.20;;;2.90;;
41817;SDS011;27493;51.730;5.294;2022-12-20T04:43:03;5.10;;;3.67;;
41817;SDS011;27493;51.730;5.294;2022-12-20T04:45:28;4.23;;;3.13;;
41817;SDS011;27493;51.730;5.294;2022-12-20T04:47:53;4.57;;;3.23;;
41817;SDS011;27493;51.730;5.294;2022-12-20T04:50:19;5.03;;;3.30;;
41817;SDS011;27493;51.730;5.294;2022-12-20T04:52:44;6.17;;;4.03;;
41817;SDS011;27493;51.730;5.294;2022-12-20T04:55:28;6.47;;;3.57;;
41817;SDS011;27493;51.730;5.294;2022-12-20T04:57:53;7.53;;;3.20;;
41817;SDS011;27493;51.730;5.294;2022-12-20T05:00:18;7.47;;;3.60;;
41817;SDS011;27493;51.730;5.294;2022-12-20T05:02:44;4.60;;;3.60;;
41817;SDS011;27493;51.730;5.294;2022-12-20T05:05:09;6.30;;;3.60;;
41817;SDS011;27493;51.730;5.294;2022-12-20T05:07:34;4.73;;;3.20;;
41817;SDS011;27493;51.730;5.294;2022-12-20T05:09:59;5.50;;;3.60;;
41817;SDS011;27493;51.730;5.294;2022-12-20T05:12:24;4.77;;;3.47;;
41817;SDS011;27493;51.730;5.294;2022-12-20T05:14:50;5.10;;;3.50;;
41817;SDS011;27493;51.730;5.294;2022-12-20T05:17:15;7.17;;;3.03;;
41817;SDS011;27493;51.730;5.294;2022-12-20T05:19:40;8.60;;;3.70;;
41817;SDS011;27493;51.730;5.294;2022-12-20T05:22:05;7.00;;;3.73;;
41817;SDS011;27493;51.730;5.294;2022-12-20T05:24:49;4.53;;;3.50;;
41817;SDS011;27493;51.730;5.294;2022-12-20T05:27:33;5.03;;;3.10;;
41817;SDS011;27493;51.730;5.294;2022-12-20T05:29:58;4.90;;;3.10;;
41817;SDS011;27493;51.730;5.294;2022-12-20T05:32:24;5.17;;;3.60;;
41817;SDS011;27493;51.730;5.294;2022-12-20T05:34:49;4.03;;;3.20;;
41817;SDS011;27493;51.730;5.294;2022-12-20T05:37:14;5.70;;;3.20;;
41817;SDS011;27493;51.730;5.294;2022-12-20T05:39:39;6.83;;;3.03;;
41817;SDS011;27493;51.730;5.294;2022-12-20T05:42:04;4.87;;;3.20;;
41817;SDS011;27493;51.730;5.294;2022-12-20T05:44:30;4.00;;;3.03;;
41817;SDS011;27493;51.730;5.294;2022-12-20T05:46:55;4.97;;;3.50;;
41817;SDS011;27493;51.730;5.294;2022-12-20T05:49:20;4.97;;;3.13;;
41817;SDS011;27493;51.730;5.294;2022-12-20T05:51:45;5.47;;;3.43;;
41817;SDS011;27493;51.730;5.294;2022-12-20T05:54:10;5.37;;;3.37;;
41817;SDS011;27493;51.730;5.294;2022-12-20T05:56:36;6.93;;;3.10;;
41817;SDS011;27493;51.730;5.294;2022-12-20T05:59:01;6.30;;;3.40;;
41817;SDS011;27493;51.730;5.294;2022-12-20T06:01:26;4.60;;;3.27;;
41817;SDS011;27493;51.730;5.294;2022-12-20T06:03:52;3.93;;;2.80;;
41817;SDS011;27493;51.730;5.294;2022-12-20T06:06:17;6.43;;;3.60;;
41817;SDS011;27493;51.730;5.294;2022-12-20T06:08:42;4.00;;;2.90;;
41817;SDS011;27493;51.730;5.294;2022-12-20T06:11:07;6.97;;;3.03;;
41817;SDS011;27493;51.730;5.294;2022-12-20T06:13:32;3.83;;;2.93;;
41817;SDS011;27493;51.730;5.294;2022-12-20T06:15:58;5.83;;;3.10;;
41817;SDS011;27493;51.730;5.294;2022-12-20T06:18:24;5.30;;;3.27;;
41817;SDS011;27493;51.730;5.294;2022-12-20T06:20:50;4.23;;;2.97;;
41817;SDS011;27493;51.730;5.294;2022-12-20T06:23:15;2.70;;;2.50;;
41817;SDS011;27493;51.730;5.294;2022-12-20T06:25:40;4.10;;;2.63;;
41817;SDS011;27493;51.730;5.294;2022-12-20T06:28:06;5.43;;;2.83;;
41817;SDS011;27493;51.730;5.294;2022-12-20T06:30:31;5.27;;;2.80;;
41817;SDS011;27493;51.730;5.294;2022-12-20T06:32:58;4.97;;;2.70;;
41817;SDS011;27493;51.730;5.294;2022-12-20T06:35:23;7.27;;;2.70;;
41817;SDS011;27493;51.730;5.294;2022-12-20T06:37:48;2.87;;;2.27;;
41817;SDS011;27493;51.730;5.294;2022-12-20T06:40:14;3.80;;;2.43;;
41817;SDS011;27493;51.730;5.294;2022-12-20T06:42:39;4.27;;;2.80;;
41817;SDS011;27493;51.730;5.294;2022-12-20T06:45:05;5.37;;;2.50;;
41817;SDS011;27493;51.730;5.294;2022-12-20T06:47:30;4.40;;;2.77;;
41817;SDS011;27493;51.730;5.294;2022-12-20T06:49:56;6.20;;;2.80;;
41817;SDS011;27493;51.730;5.294;2022-12-20T06:52:21;4.57;;;2.77;;
41817;SDS011;27493;51.730;5.294;2022-12-20T06:54:47;5.03;;;2.60;;
41817;SDS011;27493;51.730;5.294;2022-12-20T06:57:12;5.20;;;2.50;;
41817;SDS011;27493;51.730;5.294;2022-12-20T06:59:37;4.10;;;2.50;;
41817;SDS011;27493;51.730;5.294;2022-12-20T07:02:03;3.77;;;2.47;;
41817;SDS011;27493;51.730;5.294;2022-12-20T07:04:28;4.67;;;2.40;;
41817;SDS011;27493;51.730;5.294;2022-12-20T07:06:53;4.57;;;2.00;;
41817;SDS011;27493;51.730;5.294;2022-12-20T07:09:19;6.07;;;2.30;;
41817;SDS011;27493;51.730;5.294;2022-12-20T07:11:44;3.30;;;2.47;;
41817;SDS011;27493;51.730;5.294;2022-12-20T07:14:09;3.00;;;2.40;;
41817;SDS011;27493;51.730;5.294;2022-12-20T07:16:35;2.20;;;2.00;;
41817;SDS011;27493;51.730;5.294;2022-12-20T07:19:00;3.93;;;2.30;;
41817;SDS011;27493;51.730;5.294;2022-12-20T07:21:26;4.77;;;2.40;;
41817;SDS011;27493;51.730;5.294;2022-12-20T07:23:51;4.83;;;2.30;;
41817;SDS011;27493;51.730;5.294;2022-12-20T07:26:16;3.73;;;2.10;;
41817;SDS011;27493;51.730;5.294;2022-12-20T07:28:41;3.73;;;2.30;;
41817;SDS011;27493;51.730;5.294;2022-12-20T07:31:07;2.77;;;2.27;;
41817;SDS011;27493;51.730;5.294;2022-12-20T07:33:32;3.67;;;2.50;;
41817;SDS011;27493;51.730;5.294;2022-12-20T07:36:05;4.37;;;2.30;;
41817;SDS011;27493;51.730;5.294;2022-12-20T07:38:30;3.90;;;2.30;;
41817;SDS011;27493;51.730;5.294;2022-12-20T07:40:56;2.40;;;2.10;;
41817;SDS011;27493;51.730;5.294;2022-12-20T07:43:21;3.83;;;2.57;;
41817;SDS011;27493;51.730;5.294;2022-12-20T07:45:47;3.10;;;2.20;;
41817;SDS011;27493;51.730;5.294;2022-12-20T07:48:12;4.70;;;2.20;;
41817;SDS011;27493;51.730;5.294;2022-12-20T07:50:37;4.33;;;2.27;;
41817;SDS011;27493;51.730;5.294;2022-12-20T07:53:03;2.67;;;2.30;;
41817;SDS011;27493;51.730;5.294;2022-12-20T07:55:30;3.00;;;2.30;;
41817;SDS011;27493;51.730;5.294;2022-12-20T07:57:56;5.80;;;2.77;;
41817;SDS011;27493;51.730;5.294;2022-12-20T08:00:23;3.87;;;2.30;;
41817;SDS011;27493;51.730;5.294;2022-12-20T08:02:53;4.77;;;2.50;;
41817;SDS011;27493;51.730;5.294;2022-12-20T08:05:19;3.10;;;1.90;;
41817;SDS011;27493;51.730;5.294;2022-12-20T08:07:45;3.43;;;2.40;;
41817;SDS011;27493;51.730;5.294;2022-12-20T08:10:11;3.50;;;2.30;;
41817;SDS011;27493;51.730;5.294;2022-12-20T08:12:38;4.83;;;2.20;;
41817;SDS011;27493;51.730;5.294;2022-12-20T08:15:04;3.50;;;2.03;;
41817;SDS011;27493;51.730;5.294;2022-12-20T08:17:29;2.67;;;1.83;;
41817;SDS011;27493;51.730;5.294;2022-12-20T08:19:54;3.93;;;2.10;;
41817;SDS011;27493;51.730;5.294;2022-12-20T08:22:21;3.30;;;2.30;;
41817;SDS011;27493;51.730;5.294;2022-12-20T08:24:47;3.20;;;2.40;;
41817;SDS011;27493;51.730;5.294;2022-12-20T08:27:12;3.87;;;2.10;;
41817;SDS011;27493;51.730;5.294;2022-12-20T08:29:37;3.40;;;2.50;;
41817;SDS011;27493;51.730;5.294;2022-12-20T08:32:03;3.07;;;2.40;;
41817;SDS011;27493;51.730;5.294;2022-12-20T08:34:28;3.37;;;2.50;;
41817;SDS011;27493;51.730;5.294;2022-12-20T08:36:54;2.60;;;2.03;;
41817;SDS011;27493;51.730;5.294;2022-12-20T08:39:19;4.60;;;2.47;;
41817;SDS011;27493;51.730;5.294;2022-12-20T08:41:44;3.90;;;2.30;;
41817;SDS011;27493;51.730;5.294;2022-12-20T08:44:09;5.40;;;2.40;;
41817;SDS011;27493;51.730;5.294;2022-12-20T08:46:36;5.20;;;2.60;;
41817;SDS011;27493;51.730;5.294;2022-12-20T08:49:04;4.30;;;2.63;;
41817;SDS011;27493;51.730;5.294;2022-12-20T08:51:30;3.87;;;2.40;;
41817;SDS011;27493;51.730;5.294;2022-12-20T08:53:55;4.60;;;2.80;;
41817;SDS011;27493;51.730;5.294;2022-12-20T08:56:20;5.83;;;2.90;;
41817;SDS011;27493;51.730;5.294;2022-12-20T08:58:46;5.13;;;2.53;;
41817;SDS011;27493;51.730;5.294;2022-12-20T09:01:18;5.03;;;3.50;;
41817;SDS011;27493;51.730;5.294;2022-12-20T09:03:44;5.40;;;2.50;;
41817;SDS011;27493;51.730;5.294;2022-12-20T09:06:19;5.67;;;2.93;;
41817;SDS011;27493;51.730;5.294;2022-12-20T09:08:45;5.27;;;2.90;;
41817;SDS011;27493;51.730;5.294;2022-12-20T09:11:21;5.73;;;2.37;;
41817;SDS011;27493;51.730;5.294;2022-12-20T09:13:47;3.53;;;2.67;;
41817;SDS011;27493;51.730;5.294;2022-12-20T09:16:14;3.53;;;2.90;;
41817;SDS011;27493;51.730;5.294;2022-12-20T09:18:40;5.53;;;3.03;;
41817;SDS011;27493;51.730;5.294;2022-12-20T09:21:06;4.20;;;3.00;;
41817;SDS011;27493;51.730;5.294;2022-12-20T09:23:32;4.53;;;2.80;;
41817;SDS011;27493;51.730;5.294;2022-12-20T09:26:01;4.17;;;3.00;;
41817;SDS011;27493;51.730;5.294;2022-12-20T09:28:28;6.17;;;2.87;;
41817;SDS011;27493;51.730;5.294;2022-12-20T09:30:56;3.67;;;3.20;;
41817;SDS011;27493;51.730;5.294;2022-12-20T09:33:21;4.47;;;3.00;;
41817;SDS011;27493;51.730;5.294;2022-12-20T09:35:46;4.40;;;2.90;;
41817;SDS011;27493;51.730;5.294;2022-12-20T09:38:12;5.40;;;2.87;;
41817;SDS011;27493;51.730;5.294;2022-12-20T09:40:38;6.17;;;2.80;;
41817;SDS011;27493;51.730;5.294;2022-12-20T09:43:08;5.63;;;2.63;;
41817;SDS011;27493;51.730;5.294;2022-12-20T09:45:34;5.40;;;2.93;;
41817;SDS011;27493;51.730;5.294;2022-12-20T09:48:00;3.80;;;2.80;;
41817;SDS011;27493;51.730;5.294;2022-12-20T09:50:32;7.47;;;3.40;;
41817;SDS011;27493;51.730;5.294;2022-12-20T10:00:21;6.83;;;3.00;;
41817;SDS011;27493;51.730;5.294;2022-12-20T10:02:47;4.10;;;3.03;;
41817;SDS011;27493;51.730;5.294;2022-12-20T10:05:58;5.60;;;3.17;;
41817;SDS011;27493;51.730;5.294;2022-12-20T10:08:04;6.50;;;3.07;;
41817;SDS011;27493;51.730;5.294;2022-12-20T10:15:50;6.20;;;3.60;;
41817;SDS011;27493;51.730;5.294;2022-12-20T10:25:33;8.23;;;3.40;;
41817;SDS011;27493;51.730;5.294;2022-12-20T10:28:02;7.00;;;3.70;;
41817;SDS011;27493;51.730;5.294;2022-12-20T10:30:28;5.17;;;2.97;;
41817;SDS011;27493;51.730;5.294;2022-12-20T10:32:55;6.50;;;3.20;;
41817;SDS011;27493;51.730;5.294;2022-12-20T10:35:25;4.77;;;3.47;;
41817;SDS011;27493;51.730;5.294;2022-12-20T10:40:41;5.57;;;3.63;;
41817;SDS011;27493;51.730;5.294;2022-12-20T10:43:33;5.60;;;3.57;;
41817;SDS011;27493;51.730;5.294;2022-12-20T10:45:59;5.60;;;3.63;;
41817;SDS011;27493;51.730;5.294;2022-12-20T10:50:55;6.93;;;3.63;;
41817;SDS011;27493;51.730;5.294;2022-12-20T10:53:21;4.90;;;3.53;;
41817;SDS011;27493;51.730;5.294;2022-12-20T10:55:46;5.63;;;3.20;;
41817;SDS011;27493;51.730;5.294;2022-12-20T10:58:16;5.20;;;3.50;;
41817;SDS011;27493;51.730;5.294;2022-12-20T11:00:43;6.40;;;3.70;;
41817;SDS011;27493;51.730;5.294;2022-12-20T11:03:18;5.13;;;3.17;;
41817;SDS011;27493;51.730;5.294;2022-12-20T11:06:00;5.20;;;3.47;;
41817;SDS011;27493;51.730;5.294;2022-12-20T11:08:30;5.23;;;3.53;;
41817;SDS011;27493;51.730;5.294;2022-12-20T11:11:09;3.97;;;3.47;;
41817;SDS011;27493;51.730;5.294;2022-12-20T11:13:36;7.00;;;3.97;;
41817;SDS011;27493;51.730;5.294;2022-12-20T11:16:01;5.27;;;3.50;;
41817;SDS011;27493;51.730;5.294;2022-12-20T11:18:49;8.80;;;3.90;;
41817;SDS011;27493;51.730;5.294;2022-12-20T11:21:30;5.57;;;3.60;;
41817;SDS011;27493;51.730;5.294;2022-12-20T11:24:07;8.93;;;3.87;;
41817;SDS011;27493;51.730;5.294;2022-12-20T11:41:46;6.73;;;4.03;;
41817;SDS011;27493;51.730;5.294;2022-12-20T11:49:27;6.80;;;4.40;;
41817;SDS011;27493;51.730;5.294;2022-12-20T11:52:00;7.03;;;4.30;;
41817;SDS011;27493;51.730;5.294;2022-12-20T11:54:42;8.37;;;4.20;;
41817;SDS011;27493;51.730;5.294;2022-12-20T11:57:20;8.43;;;4.10;;
41817;SDS011;27493;51.730;5.294;2022-12-20T11:59:51;11.13;;;4.53;;
41817;SDS011;27493;51.730;5.294;2022-12-20T12:02:27;10.30;;;4.50;;
41817;SDS011;27493;51.730;5.294;2022-12-20T12:04:53;6.43;;;4.17;;
41817;SDS011;27493;51.730;5.294;2022-12-20T12:07:30;6.77;;;4.30;;
41817;SDS011;27493;51.730;5.294;2022-12-20T12:10:31;7.47;;;4.67;;
41817;SDS011;27493;51.730;5.294;2022-12-20T12:17:53;9.13;;;4.90;;
41817;SDS011;27493;51.730;5.294;2022-12-20T12:22:54;6.93;;;4.60;;
41817;SDS011;27493;51.730;5.294;2022-12-20T12:25:21;6.33;;;4.50;;
41817;SDS011;27493;51.730;5.294;2022-12-20T12:27:47;8.03;;;4.47;;
41817;SDS011;27493;51.730;5.294;2022-12-20T12:30:13;8.87;;;4.50;;
41817;SDS011;27493;51.730;5.294;2022-12-20T12:32:59;7.30;;;5.07;;
41817;SDS011;27493;51.730;5.294;2022-12-20T12:35:46;7.30;;;4.53;;
41817;SDS011;27493;51.730;5.294;2022-12-20T12:43:20;7.77;;;4.87;;
41817;SDS011;27493;51.730;5.294;2022-12-20T12:45:48;7.47;;;4.97;;
41817;SDS011;27493;51.730;5.294;2022-12-20T12:50:47;7.27;;;4.53;;
41817;SDS011;27493;51.730;5.294;2022-12-20T12:53:15;8.40;;;4.77;;
41817;SDS011;27493;51.730;5.294;2022-12-20T12:55:47;6.00;;;4.23;;
41817;SDS011;27493;51.730;5.294;2022-12-20T13:03:24;5.90;;;4.43;;
41817;SDS011;27493;51.730;5.294;2022-12-20T13:06:20;8.10;;;4.80;;
41817;SDS011;27493;51.730;5.294;2022-12-20T13:08:46;5.97;;;4.90;;
41817;SDS011;27493;51.730;5.294;2022-12-20T13:11:12;7.53;;;5.07;;
41817;SDS011;27493;51.730;5.294;2022-12-20T13:14:09;8.80;;;4.87;;
41817;SDS011;27493;51.730;5.294;2022-12-20T13:16:36;7.23;;;4.70;;
41817;SDS011;27493;51.730;5.294;2022-12-20T13:19:09;9.23;;;5.03;;
41817;SDS011;27493;51.730;5.294;2022-12-20T13:21:35;7.87;;;5.20;;
41817;SDS011;27493;51.730;5.294;2022-12-20T13:26:49;10.00;;;5.17;;
41817;SDS011;27493;51.730;5.294;2022-12-20T13:29:25;7.30;;;5.10;;
41817;SDS011;27493;51.730;5.294;2022-12-20T13:31:52;7.37;;;5.13;;
41817;SDS011;27493;51.730;5.294;2022-12-20T13:34:37;6.10;;;5.23;;
41817;SDS011;27493;51.730;5.294;2022-12-20T13:37:18;7.87;;;5.57;;
41817;SDS011;27493;51.730;5.294;2022-12-20T13:39:48;8.00;;;4.87;;
41817;SDS011;27493;51.730;5.294;2022-12-20T13:44:45;9.07;;;4.57;;
41817;SDS011;27493;51.730;5.294;2022-12-20T13:47:16;6.93;;;5.40;;
41817;SDS011;27493;51.730;5.294;2022-12-20T13:49:45;6.10;;;4.97;;
41817;SDS011;27493;51.730;5.294;2022-12-20T13:52:13;7.83;;;4.73;;
41817;SDS011;27493;51.730;5.294;2022-12-20T13:54:41;6.30;;;4.90;;
41817;SDS011;27493;51.730;5.294;2022-12-20T13:57:07;8.33;;;4.83;;
41817;SDS011;27493;51.730;5.294;2022-12-20T13:59:35;8.00;;;4.93;;
41817;SDS011;27493;51.730;5.294;2022-12-20T14:02:01;6.80;;;5.10;;
41817;SDS011;27493;51.730;5.294;2022-12-20T14:04:41;6.67;;;5.00;;
41817;SDS011;27493;51.730;5.294;2022-12-20T14:07:08;8.27;;;5.00;;
41817;SDS011;27493;51.730;5.294;2022-12-20T14:09:37;5.33;;;4.83;;
41817;SDS011;27493;51.730;5.294;2022-12-20T14:12:09;8.60;;;5.00;;
41817;SDS011;27493;51.730;5.294;2022-12-20T14:14:36;8.77;;;5.03;;
41817;SDS011;27493;51.730;5.294;2022-12-20T14:19:42;7.00;;;5.20;;
41817;SDS011;27493;51.730;5.294;2022-12-20T14:22:09;7.90;;;5.20;;
41817;SDS011;27493;51.730;5.294;2022-12-20T14:24:35;8.30;;;5.50;;
41817;SDS011;27493;51.730;5.294;2022-12-20T14:27:03;6.90;;;5.43;;
41817;SDS011;27493;51.730;5.294;2022-12-20T14:29:28;7.73;;;5.03;;
41817;SDS011;27493;51.730;5.294;2022-12-20T14:31:54;9.67;;;5.70;;
41817;SDS011;27493;51.730;5.294;2022-12-20T14:34:21;6.67;;;5.40;;
41817;SDS011;27493;51.730;5.294;2022-12-20T14:36:48;8.73;;;5.53;;
41817;SDS011;27493;51.730;5.294;2022-12-20T14:39:27;7.50;;;5.53;;
41817;SDS011;27493;51.730;5.294;2022-12-20T14:41:57;6.67;;;5.17;;
41817;SDS011;27493;51.730;5.294;2022-12-20T14:44:23;5.83;;;5.00;;
41817;SDS011;27493;51.730;5.294;2022-12-20T14:46:52;8.27;;;5.50;;
41817;SDS011;27493;51.730;5.294;2022-12-20T14:51:47;8.47;;;5.43;;
41817;SDS011;27493;51.730;5.294;2022-12-20T14:54:16;10.23;;;6.03;;
41817;SDS011;27493;51.730;5.294;2022-12-20T14:56:48;6.90;;;5.27;;
41817;SDS011;27493;51.730;5.294;2022-12-20T14:59:16;7.87;;;5.23;;
41817;SDS011;27493;51.730;5.294;2022-12-20T15:01:42;9.57;;;5.40;;
41817;SDS011;27493;51.730;5.294;2022-12-20T15:06:45;7.03;;;5.70;;
41817;SDS011;27493;51.730;5.294;2022-12-20T15:09:12;7.53;;;5.30;;
41817;SDS011;27493;51.730;5.294;2022-12-20T15:11:38;6.73;;;5.27;;
41817;SDS011;27493;51.730;5.294;2022-12-20T15:14:18;7.53;;;5.50;;
41817;SDS011;27493;51.730;5.294;2022-12-20T15:16:45;6.73;;;5.53;;
41817;SDS011;27493;51.730;5.294;2022-12-20T15:19:11;10.30;;;5.33;;
41817;SDS011;27493;51.730;5.294;2022-12-20T15:21:37;7.80;;;5.60;;
41817;SDS011;27493;51.730;5.294;2022-12-20T15:24:39;9.10;;;6.00;;
41817;SDS011;27493;51.730;5.294;2022-12-20T15:26:58;7.33;;;5.40;;
41817;SDS011;27493;51.730;5.294;2022-12-20T15:29:24;7.97;;;5.50;;
41817;SDS011;27493;51.730;5.294;2022-12-20T15:31:50;7.60;;;5.63;;
41817;SDS011;27493;51.730;5.294;2022-12-20T15:36:47;7.53;;;6.33;;
41817;SDS011;27493;51.730;5.294;2022-12-20T15:39:12;7.90;;;5.63;;
41817;SDS011;27493;51.730;5.294;2022-12-20T15:41:39;7.57;;;5.77;;
41817;SDS011;27493;51.730;5.294;2022-12-20T15:44:06;9.47;;;7.37;;
41817;SDS011;27493;51.730;5.294;2022-12-20T15:46:34;9.03;;;6.80;;
41817;SDS011;27493;51.730;5.294;2022-12-20T15:48:59;9.20;;;6.60;;
41817;SDS011;27493;51.730;5.294;2022-12-20T15:51:35;8.23;;;6.67;;
41817;SDS011;27493;51.730;5.294;2022-12-20T15:54:03;8.03;;;6.47;;
41817;SDS011;27493;51.730;5.294;2022-12-20T15:56:28;10.60;;;6.93;;
41817;SDS011;27493;51.730;5.294;2022-12-20T15:58:54;9.53;;;7.40;;
41817;SDS011;27493;51.730;5.294;2022-12-20T16:01:20;10.27;;;7.70;;
41817;SDS011;27493;51.730;5.294;2022-12-20T16:03:46;12.03;;;7.33;;
41817;SDS011;27493;51.730;5.294;2022-12-20T16:06:12;13.90;;;8.23;;
41817;SDS011;27493;51.730;5.294;2022-12-20T16:08:38;10.03;;;7.30;;
41817;SDS011;27493;51.730;5.294;2022-12-20T16:11:04;11.20;;;7.50;;
41817;SDS011;27493;51.730;5.294;2022-12-20T16:13:30;10.60;;;7.83;;
41817;SDS011;27493;51.730;5.294;2022-12-20T16:15:55;9.97;;;6.93;;
41817;SDS011;27493;51.730;5.294;2022-12-20T16:18:20;9.60;;;7.87;;
41817;SDS011;27493;51.730;5.294;2022-12-20T16:20:45;11.20;;;7.97;;
41817;SDS011;27493;51.730;5.294;2022-12-20T16:23:19;8.17;;;7.13;;
41817;SDS011;27493;51.730;5.294;2022-12-20T16:25:46;10.47;;;7.97;;
41817;SDS011;27493;51.730;5.294;2022-12-20T16:28:11;11.23;;;7.53;;